Time;durP1;ratioP1;P1;durP2;ratioP2;P2;SDS_P1;SDS_P2;PMS_P1;PMS_P2;Temp;Humidity;BMP_temperature;BMP_pressure;BME280_temperature;BME280_humidity;BME280_pressure;Samples;Min_cycle;Max_cycle;Signal;HPM_P1;HPM_P2
2023/06/15 00:01:44;;;;;;;6.20;4.63;;;21.10;1.00;;;;;;5036506;28;20438;-74
2023/06/15 00:04:10;;;;;;;6.93;4.90;;;;;;;;;;5039235;28;20434;-73
2023/06/15 00:06:35;;;;;;;7.30;5.60;;;21.10;1.00;;;;;;5032288;28;20186;-74
2023/06/15 00:09:01;;;;;;;13.60;5.83;;;21.00;1.00;;;;;;5040477;28;20205;-74
2023/06/15 00:11:26;;;;;;;6.93;5.53;;;21.00;1.00;;;;;;5031557;28;20181;-73
2023/06/15 00:13:52;;;;;;;6.40;5.20;;;21.00;1.00;;;;;;5031913;28;20188;-74
2023/06/15 00:16:18;;;;;;;8.67;5.00;;;;;;;;;;5039983;28;20639;-74
2023/06/15 00:18:48;;;;;;;5.63;4.80;;;21.00;1.00;;;;;;5032180;28;20683;-74
2023/06/15 00:21:17;;;;;;;6.80;5.10;;;20.90;1.00;;;;;;5031174;28;20431;-73
2023/06/15 00:23:45;;;;;;;8.60;5.07;;;20.90;1.00;;;;;;5046788;28;20480;-73
2023/06/15 00:26:11;;;;;;;6.80;5.20;;;20.90;1.00;;;;;;5040520;28;20471;-73
2023/06/15 00:28:36;;;;;;;6.60;5.37;;;21.60;1.00;;;;;;5040053;28;20451;-74
2023/06/15 00:31:02;;;;;;;7.30;4.70;;;20.80;1.00;;;;;;5029905;28;20185;-73
2023/06/15 00:33:28;;;;;;;6.20;4.67;;;;;;;;;;5038625;28;20219;-74
2023/06/15 00:35:53;;;;;;;9.63;5.13;;;20.70;1.00;;;;;;5031122;28;20189;-74
2023/06/15 00:38:19;;;;;;;7.13;5.00;;;20.90;1.00;;;;;;5031269;28;20209;-74
2023/06/15 00:40:45;;;;;;;10.10;5.00;;;20.70;1.00;;;;;;5037736;28;20188;-74
2023/06/15 00:43:11;;;;;;;5.80;5.00;;;20.70;1.00;;;;;;5032240;28;20213;-74
2023/06/15 00:45:36;;;;;;;6.03;4.60;;;22.70;1.00;;;;;;5036816;28;20583;-73
2023/06/15 00:48:02;;;;;;;5.77;4.80;;;20.70;1.00;;;;;;5033333;28;20186;-74
2023/06/15 00:50:31;;;;;;;8.70;5.07;;;20.60;1.00;;;;;;5032895;28;20655;-74
2023/06/15 00:53:00;;;;;;;6.13;5.17;;;20.80;1.00;;;;;;5031594;28;20498;-74
2023/06/15 00:55:26;;;;;;;6.30;4.80;;;20.60;1.00;;;;;;5038637;28;20799;-73
2023/06/15 00:57:52;;;;;;;7.90;4.90;;;20.50;1.00;;;;;;5029984;28;20428;-74
2023/06/15 01:00:19;;;;;;;10.00;4.67;;;20.50;1.00;;;;;;5032904;28;20197;-74
2023/06/15 01:02:48;;;;;;;7.27;4.93;;;20.50;1.00;;;;;;5028515;28;20451;-74
2023/06/15 01:05:16;;;;;;;6.50;4.57;;;20.40;1.00;;;;;;5032986;28;20458;-75
2023/06/15 01:07:46;;;;;;;6.27;4.87;;;20.30;1.00;;;;;;5043008;28;20510;-74
2023/06/15 01:10:13;;;;;;;7.60;5.00;;;20.30;1.00;;;;;;5031376;28;20452;-74
2023/06/15 01:12:41;;;;;;;9.40;4.93;;;20.30;1.00;;;;;;5031014;28;20444;-74
2023/06/15 01:15:08;;;;;;;7.17;4.60;;;20.40;1.00;;;;;;5031444;28;20849;-74
2023/06/15 01:17:34;;;;;;;5.40;4.50;;;20.30;1.00;;;;;;5033925;28;20478;-74
2023/06/15 01:20:05;;;;;;;8.20;5.40;;;20.30;1.00;;;;;;5030379;28;20447;-74
2023/06/15 01:22:55;;;;;;;7.87;5.17;;;20.20;1.00;;;;;;5035120;28;20438;-74
2023/06/15 01:25:53;;;;;;;5.43;4.73;;;20.20;1.00;;;;;;5042747;28;20541;-74
2023/06/15 01:28:20;;;;;;;6.80;4.83;;;20.10;1.00;;;;;;5030388;28;21065;-74
2023/06/15 01:30:53;;;;;;;5.43;4.47;;;20.10;1.00;;;;;;5030354;28;20814;-74
2023/06/15 01:33:21;;;;;;;6.00;4.47;;;20.10;1.00;;;;;;5028853;28;20841;-74
2023/06/15 01:35:47;;;;;;;7.20;4.63;;;20.10;1.00;;;;;;5038583;28;20617;-74
2023/06/15 01:38:13;;;;;;;7.17;4.70;;;20.10;1.00;;;;;;5029783;28;20501;-74
2023/06/15 01:40:44;;;;;;;12.90;4.93;;;20.10;1.00;;;;;;5030085;28;20188;-74
2023/06/15 01:43:12;;;;;;;8.80;4.93;;;20.10;1.00;;;;;;5027760;28;20489;-74
2023/06/15 01:45:40;;;;;;;7.97;4.90;;;21.20;1.00;;;;;;5030127;28;20982;-74
2023/06/15 01:48:07;;;;;;;5.57;4.63;;;20.00;1.00;;;;;;5030532;28;20436;-74
2023/06/15 01:50:35;;;;;;;5.60;4.70;;;20.00;1.00;;;;;;5036928;28;20740;-73
2023/06/15 01:53:01;;;;;;;5.97;4.70;;;20.00;1.00;;;;;;5037872;28;20430;-74
2023/06/15 01:55:27;;;;;;;6.50;5.00;;;20.10;1.00;;;;;;5038213;28;20440;-74
2023/06/15 01:57:53;;;;;;;7.10;4.83;;;20.00;1.00;;;;;;5036621;28;20267;-74
2023/06/15 02:00:21;;;;;;;7.80;5.00;;;20.00;1.00;;;;;;5027782;28;20189;-73
2023/06/15 02:02:47;;;;;;;7.50;4.77;;;20.10;1.00;;;;;;5030003;28;20511;-73
2023/06/15 02:05:13;;;;;;;6.77;4.77;;;20.00;1.00;;;;;;5035907;28;20566;-73
2023/06/15 02:07:38;;;;;;;6.97;4.60;;;20.10;1.00;;;;;;5029326;28;20177;-73
2023/06/15 02:10:04;;;;;;;7.87;5.00;;;20.10;1.00;;;;;;5028213;28;20204;-73
2023/06/15 02:12:30;;;;;;;6.03;5.00;;;;;;;;;;5028626;28;20267;-73
2023/06/15 02:14:57;;;;;;;6.20;4.87;;;;;;;;;;5037219;28;20807;-73
2023/06/15 02:17:30;;;;;;;5.20;4.70;;;20.00;1.00;;;;;;5029823;28;20459;-73
2023/06/15 02:19:56;;;;;;;6.83;4.80;;;20.10;1.00;;;;;;5029196;28;20443;-73
2023/06/15 02:22:22;;;;;;;7.07;4.50;;;20.00;1.00;;;;;;5040204;28;20571;-73
2023/06/15 02:24:47;;;;;;;7.30;4.90;;;20.00;1.00;;;;;;5035033;28;20555;-73
2023/06/15 02:27:13;;;;;;;5.60;4.97;;;20.00;1.00;;;;;;5029102;28;20623;-73
2023/06/15 02:29:39;;;;;;;7.57;4.77;;;19.90;1.00;;;;;;5029341;28;20201;-73
2023/06/15 02:32:04;;;;;;;5.30;4.50;;;19.80;1.00;;;;;;5029104;28;20252;-73
2023/06/15 02:34:30;;;;;;;6.23;4.93;;;18.60;1.00;;;;;;5027788;28;20571;-74
2023/06/15 02:36:56;;;;;;;16.53;5.17;;;19.80;1.00;;;;;;5037549;28;20181;-72
2023/06/15 02:39:22;;;;;;;6.10;5.07;;;19.70;1.00;;;;;;5039762;28;20212;-73
2023/06/15 02:41:48;;;;;;;6.00;4.80;;;20.20;1.00;;;;;;5034669;28;20783;-73
2023/06/15 02:44:16;;;;;;;15.63;5.00;;;19.80;1.00;;;;;;5032659;28;20663;-73
2023/06/15 02:46:43;;;;;;;8.37;4.80;;;;;;;;;;5037274;28;20199;-73
2023/06/15 02:49:08;;;;;;;8.17;4.90;;;19.80;1.00;;;;;;5039507;28;20600;-74
2023/06/15 02:51:35;;;;;;;6.60;5.43;;;;;;;;;;5032963;28;20506;-73
2023/06/15 02:54:01;;;;;;;6.70;5.07;;;;;;;;;;5045035;28;20201;-73
2023/06/15 02:56:29;;;;;;;7.03;5.33;;;19.60;1.00;;;;;;5033666;28;20428;-73
2023/06/15 02:58:55;;;;;;;6.23;5.00;;;;;;;;;;5027809;28;20209;-73
2023/06/15 03:01:22;;;;;;;9.10;5.73;;;19.60;1.00;;;;;;5027031;28;20464;-74
2023/06/15 03:03:47;;;;;;;6.43;5.07;;;19.50;1.00;;;;;;5033465;28;20466;-74
2023/06/15 03:06:14;;;;;;;6.63;4.73;;;19.50;1.00;;;;;;5028441;28;20514;-74
2023/06/15 03:08:40;;;;;;;6.50;5.43;;;19.40;1.00;;;;;;5028803;28;20201;-73
2023/06/15 03:11:06;;;;;;;7.17;5.20;;;19.40;1.00;;;;;;5028442;28;20420;-74
2023/06/15 03:13:32;;;;;;;7.60;5.30;;;19.60;1.00;;;;;;5027881;28;20478;-74
2023/06/15 03:16:01;;;;;;;6.10;5.23;;;19.20;1.00;;;;;;5028423;28;20268;-74
2023/06/15 03:18:28;;;;;;;7.60;4.90;;;19.50;1.00;;;;;;5036850;28;20443;-74
2023/06/15 03:20:53;;;;;;;6.90;5.03;;;19.40;1.00;;;;;;5036767;28;20455;-73
2023/06/15 03:23:19;;;;;;;7.70;5.83;;;19.40;1.00;;;;;;5038505;28;20672;-74
2023/06/15 03:25:45;;;;;;;7.60;5.30;;;;;;;;;;5036167;28;20291;-75
2023/06/15 03:28:11;;;;;;;6.67;5.60;;;19.40;1.00;;;;;;5035155;28;20215;-74
2023/06/15 03:30:40;;;;;;;6.17;5.20;;;;;;;;;;5032377;28;20499;-73
2023/06/15 03:33:07;;;;;;;6.43;5.13;;;19.30;1.00;;;;;;5032690;28;20192;-74
2023/06/15 03:35:34;;;;;;;7.00;5.40;;;19.30;1.00;;;;;;5031969;28;20447;-73
2023/06/15 03:37:59;;;;;;;6.77;4.90;;;19.40;1.00;;;;;;5032359;28;20440;-73
2023/06/15 03:40:25;;;;;;;7.60;5.43;;;19.40;1.00;;;;;;5032428;28;20436;-73
2023/06/15 03:42:50;;;;;;;9.80;5.20;;;19.50;1.00;;;;;;5034272;28;20200;-73
2023/06/15 03:45:17;;;;;;;6.67;5.43;;;19.40;1.00;;;;;;5032322;28;20217;-73
2023/06/15 03:47:45;;;;;;;12.00;5.77;;;19.50;1.00;;;;;;5044090;28;20177;-73
2023/06/15 03:50:11;;;;;;;6.87;5.27;;;19.40;1.00;;;;;;5046001;28;20531;-74
2023/06/15 03:52:37;;;;;;;7.17;5.63;;;;;;;;;;5044700;28;20427;-73
2023/06/15 03:55:03;;;;;;;7.20;5.83;;;19.30;1.00;;;;;;5040106;28;20780;-73
2023/06/15 03:57:29;;;;;;;9.13;6.30;;;;;;;;;;5029549;28;20188;-73
2023/06/15 03:59:55;;;;;;;7.87;5.73;;;;;;;;;;5031688;28;20434;-74
2023/06/15 04:02:21;;;;;;;8.10;5.50;;;;;;;;;;5031698;28;20914;-74
2023/06/15 04:04:47;;;;;;;9.10;6.33;;;18.90;1.00;;;;;;5030945;28;20232;-74
2023/06/15 04:07:12;;;;;;;12.03;6.37;;;18.80;1.00;;;;;;5063730;28;20205;-73
2023/06/15 04:09:38;;;;;;;8.80;6.30;;;18.80;1.00;;;;;;5030663;28;20197;-74
2023/06/15 04:12:04;;;;;;;9.33;6.50;;;18.80;1.00;;;;;;5032003;28;20212;-74
2023/06/15 04:14:30;;;;;;;7.77;6.10;;;18.70;1.00;;;;;;5030853;28;20190;-74
2023/06/15 04:16:56;;;;;;;8.77;6.33;;;;;;;;;;5031843;28;20421;-74
2023/06/15 04:19:22;;;;;;;8.77;6.30;;;18.80;1.00;;;;;;5031530;28;20451;-74
2023/06/15 04:21:48;;;;;;;8.97;6.03;;;18.80;1.00;;;;;;5044390;28;20234;-74
2023/06/15 04:24:14;;;;;;;10.13;6.40;;;;;;;;;;5038716;28;20522;-74
2023/06/15 04:26:42;;;;;;;17.30;7.07;;;18.90;1.00;;;;;;5031364;28;20814;-74
2023/06/15 04:29:08;;;;;;;8.73;6.30;;;18.80;1.00;;;;;;5031507;28;20439;-73
2023/06/15 04:31:33;;;;;;;18.27;6.80;;;18.80;1.00;;;;;;5030964;28;20474;-74
2023/06/15 04:34:00;;;;;;;8.47;6.27;;;18.70;1.00;;;;;;5030167;28;20803;-74
2023/06/15 04:36:27;;;;;;;13.03;6.70;;;18.70;1.00;;;;;;5029533;28;20197;-73
2023/06/15 04:38:52;;;;;;;15.97;6.40;;;19.00;1.00;;;;;;5031325;28;20455;-74
2023/06/15 04:41:22;;;;;;;9.80;6.10;;;18.70;1.00;;;;;;5030735;28;20455;-74
2023/06/15 04:43:48;;;;;;;13.33;6.50;;;;;;;;;;5036207;28;20196;-74
2023/06/15 04:46:14;;;;;;;8.57;6.50;;;18.70;1.00;;;;;;5038451;28;20475;-74
2023/06/15 04:48:49;;;;;;;14.33;7.00;;;;;;;;;;5030324;28;20463;-74
2023/06/15 04:51:15;;;;;;;8.63;6.67;;;18.70;1.00;;;;;;5029596;28;20513;-74
2023/06/15 04:53:42;;;;;;;9.77;6.33;;;18.60;1.00;;;;;;5051338;28;20415;-74
2023/06/15 04:56:08;;;;;;;9.67;6.60;;;18.60;1.00;;;;;;5042330;28;20439;-74
2023/06/15 04:58:34;;;;;;;11.90;6.00;;;;;;;;;;5030713;28;20464;-74
2023/06/15 05:01:00;;;;;;;9.47;6.50;;;18.60;1.00;;;;;;5032934;28;20478;-74
2023/06/15 05:03:25;;;;;;;8.20;6.30;;;21.00;1.00;;;;;;5038975;28;20188;-74
2023/06/15 05:05:51;;;;;;;8.93;6.60;;;18.60;1.00;;;;;;5039214;28;20264;-73
2023/06/15 05:08:16;;;;;;;10.60;6.30;;;19.40;1.00;;;;;;5030698;28;20257;-73
2023/06/15 05:10:42;;;;;;;10.63;6.50;;;18.70;1.00;;;;;;5035892;28;20176;-74
2023/06/15 05:13:07;;;;;;;12.03;6.53;;;18.70;1.00;;;;;;5034795;28;20683;-74
2023/06/15 05:15:34;;;;;;;15.33;7.20;;;18.70;1.00;;;;;;5030490;28;20277;-74
2023/06/15 05:18:00;;;;;;;9.00;6.27;;;18.70;1.00;;;;;;5031069;28;20276;-73
2023/06/15 05:20:25;;;;;;;10.60;6.93;;;18.70;1.00;;;;;;5032385;28;20519;-74
2023/06/15 05:22:51;;;;;;;15.73;6.93;;;18.70;1.00;;;;;;5046178;28;20276;-73
2023/06/15 05:25:18;;;;;;;15.73;6.67;;;20.70;1.00;;;;;;5039878;28;20680;-73
2023/06/15 05:27:44;;;;;;;16.43;7.17;;;;;;;;;;5030589;28;20544;-73
2023/06/15 05:30:11;;;;;;;12.00;6.33;;;18.80;1.00;;;;;;5030249;28;20452;-74
2023/06/15 05:32:38;;;;;;;11.53;6.10;;;18.90;1.00;;;;;;5033704;28;20427;-74
2023/06/15 05:35:08;;;;;;;15.87;6.47;;;18.90;1.00;;;;;;5032752;28;20431;-73
2023/06/15 05:37:37;;;;;;;11.73;6.17;;;19.00;1.00;;;;;;5030103;28;20443;-74
2023/06/15 05:40:03;;;;;;;8.80;6.13;;;19.10;1.00;;;;;;5029763;28;20985;-74
2023/06/15 05:42:29;;;;;;;13.00;6.50;;;;;;;;;;5038280;28;20905;-73
2023/06/15 05:44:55;;;;;;;10.53;6.23;;;;;;;;;;5038624;28;20466;-73
2023/06/15 05:47:22;;;;;;;9.30;6.37;;;;;;;;;;5031074;28;20440;-74
2023/06/15 05:49:47;;;;;;;9.50;6.23;;;19.40;1.00;;;;;;5038239;28;20486;-73
2023/06/15 05:52:14;;;;;;;9.10;6.10;;;19.40;1.00;;;;;;5038301;28;20489;-73
2023/06/15 05:54:42;;;;;;;10.70;5.27;;;19.50;1.00;;;;;;5025882;28;20182;-74
2023/06/15 05:57:09;;;;;;;13.00;6.10;;;19.50;1.00;;;;;;5035550;28;20915;-74
2023/06/15 05:59:35;;;;;;;10.67;6.10;;;19.70;1.00;;;;;;5036885;28;20459;-73
2023/06/15 06:02:01;;;;;;;8.70;5.70;;;19.70;1.00;;;;;;5061701;28;20428;-74
2023/06/15 06:04:27;;;;;;;6.73;5.60;;;19.90;1.00;;;;;;5029689;28;20271;-75
2023/06/15 06:06:52;;;;;;;7.70;6.07;;;20.00;1.00;;;;;;5037573;28;20303;-74
2023/06/15 06:09:18;;;;;;;7.80;5.97;;;20.10;1.00;;;;;;5024506;28;20471;-72
2023/06/15 06:11:47;;;;;;;7.50;6.10;;;;;;;;;;5032564;28;20256;-73
2023/06/15 06:14:13;;;;;;;9.27;6.43;;;;;;;;;;5029894;28;20420;-72
2023/06/15 06:16:39;;;;;;;6.00;5.40;;;;;;;;;;5029558;28;20427;-73
2023/06/15 06:19:05;;;;;;;9.30;6.60;;;20.50;1.00;;;;;;5027937;28;20460;-74
2023/06/15 06:21:32;;;;;;;9.63;6.20;;;20.60;1.00;;;;;;5040351;28;20875;-74
2023/06/15 06:23:58;;;;;;;7.27;6.00;;;;;;;;;;5050243;28;20215;-74
2023/06/15 06:26:23;;;;;;;8.67;6.03;;;20.80;1.00;;;;;;5031623;28;20470;-74
2023/06/15 06:28:49;;;;;;;7.40;5.87;;;20.70;1.00;;;;;;5030031;28;20444;-74
2023/06/15 06:31:15;;;;;;;7.73;6.17;;;21.00;1.00;;;;;;5037550;28;20544;-75
2023/06/15 06:33:40;;;;;;;6.90;6.03;;;21.00;1.00;;;;;;5029167;28;20389;-74
2023/06/15 06:36:08;;;;;;;8.23;5.97;;;21.20;1.00;;;;;;5028187;28;20259;-74
2023/06/15 06:38:34;;;;;;;7.23;6.13;;;21.20;1.00;;;;;;5029127;28;20231;-75
2023/06/15 06:40:59;;;;;;;9.70;6.20;;;21.30;1.00;;;;;;5029343;28;20775;-75
2023/06/15 06:43:25;;;;;;;8.10;6.20;;;21.30;1.00;;;;;;5030242;28;20427;-73
2023/06/15 06:45:51;;;;;;;8.10;6.30;;;21.40;1.00;;;;;;5027722;28;20571;-74
2023/06/15 06:48:17;;;;;;;7.40;6.17;;;;;;;;;;5024335;28;20220;-73
2023/06/15 06:50:43;;;;;;;9.03;6.73;;;21.70;1.00;;;;;;5030223;28;20702;-72
2023/06/15 06:53:10;;;;;;;10.60;6.27;;;;;;;;;;5030674;28;20208;-72
2023/06/15 06:55:35;;;;;;;8.80;6.13;;;21.90;1.00;;;;;;5035235;28;20235;-73
2023/06/15 06:58:01;;;;;;;8.00;6.40;;;24.20;1.00;;;;;;5029884;28;20435;-74
2023/06/15 07:00:28;;;;;;;8.83;5.70;;;22.00;1.00;;;;;;5029662;28;20647;-71
2023/06/15 07:02:54;;;;;;;9.63;5.67;;;;;;;;;;5037612;28;20176;-74
2023/06/15 07:05:20;;;;;;;7.40;6.13;;;22.30;1.00;;;;;;5033253;28;20519;-73
2023/06/15 07:07:47;;;;;;;10.77;6.90;;;;;;;;;;5048706;28;20423;-72
2023/06/15 07:10:13;;;;;;;9.50;5.40;;;;;;;;;;5055451;28;20462;-73
2023/06/15 07:12:39;;;;;;;9.67;6.60;;;;;;;;;;5047304;28;20764;-73
2023/06/15 07:15:05;;;;;;;8.90;6.57;;;22.90;1.00;;;;;;5036620;28;20420;-73
2023/06/15 07:17:31;;;;;;;8.77;6.00;;;23.00;1.00;;;;;;5055621;28;20440;-72
2023/06/15 07:19:57;;;;;;;7.73;6.63;;;21.00;1.00;;;;;;5045445;28;20468;-72
2023/06/15 07:22:23;;;;;;;8.70;6.93;;;23.00;1.00;;;;;;5039072;28;20204;-76
2023/06/15 07:24:49;;;;;;;12.80;6.80;;;;;;;;;;5043761;28;20197;-73
2023/06/15 07:27:15;;;;;;;8.00;6.10;;;;;;;;;;5037649;28;20424;-72
2023/06/15 07:29:41;;;;;;;8.17;6.27;;;;;;;;;;5038042;28;20481;-73
2023/06/15 07:32:07;;;;;;;9.13;6.90;;;23.60;1.00;;;;;;5045330;28;20518;-74
2023/06/15 07:34:33;;;;;;;11.47;6.50;;;23.80;1.00;;;;;;5035335;28;20640;-74
2023/06/15 07:36:58;;;;;;;9.30;5.87;;;24.00;1.00;;;;;;5062848;28;20197;-75
2023/06/15 07:39:24;;;;;;;6.87;5.90;;;24.10;1.00;;;;;;5037483;28;20282;-72
2023/06/15 07:41:49;;;;;;;8.20;6.50;;;24.30;1.00;;;;;;5047519;28;20196;-74
2023/06/15 07:44:15;;;;;;;11.80;6.30;;;24.50;1.00;;;;;;5048391;28;20194;-74
2023/06/15 07:46:41;;;;;;;10.07;6.23;;;24.70;1.00;;;;;;5043060;28;20629;-74
2023/06/15 07:49:07;;;;;;;7.47;6.40;;;24.90;1.00;;;;;;5036936;28;20266;-74
2023/06/15 07:51:33;;;;;;;14.23;6.50;;;;;;;;;;5036486;28;20863;-74
2023/06/15 07:53:59;;;;;;;8.60;6.20;;;;;;;;;;5029535;28;20603;-75
2023/06/15 07:56:25;;;;;;;9.27;6.00;;;;;;;;;;5026429;28;20788;-75
2023/06/15 07:58:51;;;;;;;8.33;6.20;;;;;;;;;;5029909;28;20458;-74
2023/06/15 08:01:17;;;;;;;12.73;6.73;;;;;;;;;;5030789;28;20213;-74
2023/06/15 08:03:43;;;;;;;8.13;6.30;;;26.00;1.00;;;;;;5034149;28;20510;-74
2023/06/15 08:06:09;;;;;;;9.70;6.27;;;26.00;1.00;;;;;;5033039;28;20687;-76
2023/06/15 08:08:35;;;;;;;6.90;6.13;;;26.20;1.00;;;;;;5041530;28;20204;-76
2023/06/15 08:11:02;;;;;;;11.30;6.50;;;;;;;;;;5047999;28;20455;-74
2023/06/15 08:13:27;;;;;;;10.00;6.60;;;26.40;1.00;;;;;;5042305;28;20193;-74
2023/06/15 08:15:53;;;;;;;7.43;5.90;;;26.70;1.00;;;;;;5037773;28;20242;-77
2023/06/15 08:18:18;;;;;;;7.20;5.80;;;27.40;1.00;;;;;;5042933;28;20524;-73
2023/06/15 08:20:44;;;;;;;10.53;6.37;;;27.00;1.00;;;;;;5047705;28;20196;-74
2023/06/15 08:23:10;;;;;;;7.20;6.00;;;27.10;1.00;;;;;;5053361;28;20506;-74
2023/06/15 08:25:35;;;;;;;9.13;6.10;;;27.20;1.00;;;;;;5039073;28;20201;-75
2023/06/15 08:28:01;;;;;;;7.47;5.77;;;27.30;1.00;;;;;;5039449;28;20181;-76
2023/06/15 08:30:27;;;;;;;9.60;6.07;;;27.60;1.00;;;;;;5042634;28;20219;-75
2023/06/15 08:32:52;;;;;;;7.30;6.23;;;27.10;1.00;;;;;;5034016;28;20238;-76
2023/06/15 08:35:18;;;;;;;7.20;6.07;;;27.10;1.00;;;;;;5048734;28;20199;-76
2023/06/15 08:37:44;;;;;;;7.30;5.97;;;27.60;1.00;;;;;;5033162;28;20189;-76
2023/06/15 08:40:10;;;;;;;9.93;6.40;;;27.50;1.00;;;;;;5040078;28;20204;-74
2023/06/15 08:42:37;;;;;;;11.30;6.20;;;27.50;1.00;;;;;;5043843;28;20235;-75
2023/06/15 08:45:06;;;;;;;7.07;6.17;;;27.30;1.00;;;;;;5040514;28;20205;-75
2023/06/15 08:47:33;;;;;;;7.40;6.10;;;27.50;1.00;;;;;;5045324;28;20248;-73
2023/06/15 08:50:03;;;;;;;7.07;5.70;;;27.50;1.00;;;;;;5038338;28;20196;-73
2023/06/15 08:52:37;;;;;;;7.10;5.67;;;27.70;1.00;;;;;;5029307;28;20181;-72
2023/06/15 08:55:03;;;;;;;7.90;5.90;;;27.90;1.00;;;;;;5059973;28;20620;-73
2023/06/15 08:57:32;;;;;;;6.80;6.10;;;28.30;1.00;;;;;;5029823;28;20284;-74
2023/06/15 08:59:58;;;;;;;7.97;6.27;;;30.30;1.00;;;;;;5023949;28;20229;-73
2023/06/15 09:02:25;;;;;;;7.40;6.40;;;28.70;1.00;;;;;;5029223;28;20192;-73
2023/06/15 09:04:51;;;;;;;6.90;5.60;;;28.90;1.00;;;;;;5027681;28;20208;-73
2023/06/15 09:07:18;;;;;;;7.77;5.77;;;28.90;1.00;;;;;;5038965;28;20189;-74
2023/06/15 09:10:09;;;;;;;6.70;5.70;;;29.90;1.00;;;;;;5047086;28;20551;-73
2023/06/15 09:12:44;;;;;;;7.70;5.57;;;30.20;1.00;;;;;;5034409;28;20276;-73
2023/06/15 09:15:12;;;;;;;9.52;6.07;;;31.60;1.00;;;;;;5035458;28;20181;-74
2023/06/15 09:17:39;;;;;;;6.78;5.78;;;32.60;1.00;;;;;;5052384;28;20270;-73
2023/06/15 09:20:07;;;;;;;7.20;5.50;;;33.60;1.00;;;;;;5044960;28;20192;-74
2023/06/15 09:22:39;;;;;;;6.68;5.65;;;34.10;1.00;;;;;;5042913;28;20203;-73
2023/06/15 09:25:16;;;;;;;6.55;5.22;;;34.20;1.00;;;;;;5045470;28;20197;-73
2023/06/15 09:27:51;;;;;;;7.22;5.10;;;34.80;1.00;;;;;;5047421;28;20698;-74
2023/06/15 09:30:17;;;;;;;5.88;5.28;;;35.20;1.00;;;;;;5037117;28;20181;-73
2023/06/15 09:32:43;;;;;;;6.30;5.32;;;36.30;1.00;;;;;;5038245;28;20192;-74
2023/06/15 09:35:09;;;;;;;5.82;4.82;;;;;;;;;;5048495;28;20220;-75
2023/06/15 09:37:35;;;;;;;6.07;4.85;;;37.60;1.00;;;;;;5038392;28;20181;-74
2023/06/15 09:40:05;;;;;;;5.22;4.72;;;38.10;1.00;;;;;;5042932;28;20207;-74
2023/06/15 09:42:30;;;;;;;12.65;4.80;;;38.30;1.00;;;;;;5057990;28;20191;-74
2023/06/15 09:45:06;;;;;;;6.82;4.70;;;38.70;1.00;;;;;;5051510;28;20204;-74
2023/06/15 09:47:32;;;;;;;6.10;5.03;;;38.70;1.00;;;;;;5040029;28;20252;-74
2023/06/15 09:49:59;;;;;;;6.70;4.80;;;38.50;1.00;;;;;;5069058;28;20231;-74
2023/06/15 09:52:25;;;;;;;7.60;4.38;;;;;;;;;;5043668;28;20181;-73
2023/06/15 09:54:52;;;;;;;6.93;4.72;;;38.90;1.00;;;;;;5040393;28;20235;-73
2023/06/15 09:57:19;;;;;;;5.35;4.03;;;;;;;;;;5069880;28;20193;-75
2023/06/15 09:59:48;;;;;;;4.88;4.38;;;38.80;1.00;;;;;;5068383;28;20566;-73
2023/06/15 10:02:17;;;;;;;5.45;4.30;;;38.70;1.00;;;;;;5038625;28;20185;-74
2023/06/15 10:04:47;;;;;;;6.68;4.55;;;39.20;1.00;;;;;;5037217;28;20189;-73
2023/06/15 10:07:16;;;;;;;5.40;4.60;;;39.00;1.00;;;;;;5040956;28;20177;-74
2023/06/15 10:09:49;;;;;;;7.25;4.47;;;38.70;1.00;;;;;;5047066;28;20748;-75
2023/06/15 10:12:16;;;;;;;5.60;4.50;;;39.30;1.00;;;;;;5037724;28;20249;-73
2023/06/15 10:15:03;;;;;;;5.78;4.70;;;39.30;1.00;;;;;;5035333;28;20736;-75
2023/06/15 10:17:33;;;;;;;4.50;4.10;;;39.30;1.00;;;;;;5035538;28;20195;-73
2023/06/15 10:20:07;;;;;;;6.80;4.22;;;38.20;1.00;;;;;;5026782;28;20201;-74
2023/06/15 10:22:34;;;;;;;5.38;4.30;;;36.80;1.00;;;;;;5034989;28;20188;-74
2023/06/15 10:25:01;;;;;;;9.43;5.38;;;37.70;1.00;;;;;;5037307;28;20575;-76
2023/06/15 10:27:29;;;;;;;5.57;4.50;;;35.60;1.00;;;;;;5036892;28;20267;-75
2023/06/15 10:30:37;;;;;;;5.57;4.43;;;36.00;1.00;;;;;;5052134;28;20541;-72
2023/06/15 10:33:28;;;;;;;4.63;4.20;;;37.30;1.00;;;;;;5048802;28;20196;-72
2023/06/15 10:35:56;;;;;;;5.00;4.50;;;36.80;1.00;;;;;;5038271;28;20742;-72
2023/06/15 10:38:42;;;;;;;6.72;4.38;;;37.80;1.00;;;;;;5034220;28;20505;-74
2023/06/15 10:41:09;;;;;;;8.98;4.10;;;39.20;1.00;;;;;;5022437;28;20193;-73
2023/06/15 10:43:34;;;;;;;6.53;4.03;;;40.30;1.00;;;;;;5031194;28;20272;-73
2023/06/15 10:46:02;;;;;;;4.80;4.20;;;40.00;1.00;;;;;;5038533;28;20692;-74
2023/06/15 10:48:29;;;;;;;6.13;4.30;;;40.20;1.00;;;;;;5038897;28;20204;-75
2023/06/15 10:51:03;;;;;;;7.45;4.10;;;40.90;1.00;;;;;;5032272;28;20234;-73
2023/06/15 10:53:33;;;;;;;4.95;4.18;;;40.40;1.00;;;;;;5041139;28;20231;-74
2023/06/15 10:55:59;;;;;;;4.90;4.13;;;;;;;;;;5022713;28;20185;-73
2023/06/15 10:58:27;;;;;;;4.13;3.72;;;40.50;1.00;;;;;;5025393;28;20252;-73
2023/06/15 11:01:13;;;;;;;6.05;3.88;;;41.30;1.00;;;;;;5060277;28;20667;-74
2023/06/15 11:03:43;;;;;;;5.28;4.07;;;42.00;1.00;;;;;;5031825;28;20193;-75
2023/06/15 11:06:15;;;;;;;5.35;3.88;;;42.70;1.00;;;;;;5047952;28;20333;-74
2023/06/15 11:08:51;;;;;;;6.95;3.88;;;43.40;1.00;;;;;;5039594;28;20201;-74
2023/06/15 11:11:34;;;;;;;4.55;3.90;;;43.40;1.00;;;;;;5034606;28;20543;-75
2023/06/15 11:14:04;;;;;;;6.05;4.00;;;43.00;1.00;;;;;;5041636;28;20230;-74
2023/06/15 11:16:34;;;;;;;4.63;3.42;;;43.00;1.00;;;;;;5030149;28;20606;-74
2023/06/15 11:19:23;;;;;;;5.68;4.03;;;43.60;1.00;;;;;;5021877;28;20331;-75
2023/06/15 11:21:59;;;;;;;5.18;3.80;;;42.60;1.00;;;;;;5039796;28;20180;-75
2023/06/15 11:24:31;;;;;;;4.40;3.85;;;42.00;1.00;;;;;;5040376;28;20337;-73
2023/06/15 11:27:02;;;;;;;4.40;4.00;;;42.10;1.00;;;;;;5035713;28;20256;-74
2023/06/15 11:29:32;;;;;;;4.97;4.03;;;;;;;;;;5028885;28;20343;-74
2023/06/15 11:32:01;;;;;;;5.03;4.00;;;41.40;1.00;;;;;;5022894;28;20695;-73
2023/06/15 11:34:27;;;;;;;4.20;3.70;;;42.10;1.00;;;;;;5042571;28;20231;-74
2023/06/15 11:36:59;;;;;;;4.20;3.78;;;41.40;1.00;;;;;;5040880;28;20652;-74
2023/06/15 11:39:27;;;;;;;6.05;4.35;;;40.20;1.00;;;;;;5036125;28;20551;-73
2023/06/15 11:41:53;;;;;;;4.57;4.07;;;;;;;;;;5030277;28;20189;-73
2023/06/15 11:44:23;;;;;;;4.60;3.80;;;;;;;;;;5029135;28;20185;-74
2023/06/15 11:46:58;;;;;;;4.45;4.05;;;41.30;1.00;;;;;;5034556;28;20339;-74
2023/06/15 11:49:24;;;;;;;7.65;4.50;;;;;;;;;;5039344;28;20303;-75
2023/06/15 11:51:52;;;;;;;4.95;4.40;;;41.20;1.00;;;;;;5033713;28;20556;-73
2023/06/15 11:54:23;;;;;;;5.82;3.88;;;40.40;1.00;;;;;;5037260;28;20188;-73
2023/06/15 11:56:49;;;;;;;4.95;4.05;;;;;;;;;;5031126;28;20181;-74
2023/06/15 11:59:17;;;;;;;5.18;4.30;;;36.10;1.00;;;;;;5035324;28;20234;-73
2023/06/15 12:01:43;;;;;;;4.85;4.35;;;;;;;;;;5036290;28;20246;-73
2023/06/15 12:04:12;;;;;;;5.90;4.40;;;35.00;1.00;;;;;;5041646;28;20252;-73
2023/06/15 12:06:39;;;;;;;5.05;4.43;;;34.60;1.00;;;;;;5043411;28;20201;-73
2023/06/15 12:09:07;;;;;;;9.13;4.97;;;33.80;1.00;;;;;;5034908;28;20193;-73
2023/06/15 12:11:33;;;;;;;8.73;4.50;;;33.30;1.00;;;;;;5045113;28;20184;-72
2023/06/15 12:14:08;;;;;;;5.82;4.72;;;35.50;1.00;;;;;;5039122;28;20173;-73
2023/06/15 12:16:35;;;;;;;5.53;5.00;;;32.50;1.00;;;;;;5045649;28;20181;-73
2023/06/15 12:19:01;;;;;;;5.78;4.70;;;;;;;;;;5056060;28;20226;-72
2023/06/15 12:21:37;;;;;;;5.28;4.75;;;35.80;1.00;;;;;;5052201;28;20180;-72
2023/06/15 12:24:11;;;;;;;8.45;4.50;;;35.80;1.00;;;;;;5046934;28;20242;-73
2023/06/15 12:26:37;;;;;;;6.75;4.45;;;;;;;;;;5037817;28;20204;-74
2023/06/15 12:29:13;;;;;;;5.22;4.40;;;35.80;1.00;;;;;;5038542;28;20230;-74
2023/06/15 12:31:41;;;;;;;6.00;4.68;;;35.70;1.00;;;;;;5032186;28;20259;-73
2023/06/15 12:34:08;;;;;;;6.28;4.30;;;;;;;;;;5044816;28;20183;-74
2023/06/15 12:36:34;;;;;;;7.32;4.80;;;34.10;1.00;;;;;;5041419;28;20187;-72
2023/06/15 12:39:13;;;;;;;4.97;4.47;;;33.20;1.00;;;;;;5037644;28;20201;-72
2023/06/15 12:41:41;;;;;;;5.50;4.50;;;34.40;1.00;;;;;;5043666;28;20596;-73
2023/06/15 12:44:07;;;;;;;5.97;5.28;;;34.40;1.00;;;;;;5037128;28;20188;-73
2023/06/15 12:46:35;;;;;;;7.28;4.38;;;34.00;1.00;;;;;;5044074;28;20589;-73
2023/06/15 12:49:01;;;;;;;7.68;4.53;;;31.90;1.00;;;;;;5035071;28;20197;-72
2023/06/15 12:51:27;;;;;;;6.35;4.50;;;34.30;1.00;;;;;;5041307;28;20191;-73
2023/06/15 12:53:54;;;;;;;8.30;4.55;;;34.40;1.00;;;;;;5035578;28;20212;-73
2023/06/15 12:56:20;;;;;;;4.70;4.15;;;;;;;;;;5036430;28;20173;-73
2023/06/15 12:58:46;;;;;;;6.35;4.65;;;36.30;1.00;;;;;;5035550;28;20227;-73
2023/06/15 13:01:12;;;;;;;5.72;4.32;;;35.80;1.00;;;;;;5035990;28;20268;-73
2023/06/15 13:03:37;;;;;;;5.22;4.35;;;;;;;;;;5038742;28;20228;-75
2023/06/15 13:06:04;;;;;;;5.43;4.40;;;37.30;1.00;;;;;;5052275;28;20204;-73
2023/06/15 13:08:29;;;;;;;4.78;3.90;;;39.20;1.00;;;;;;5037999;28;20219;-73
2023/06/15 13:10:55;;;;;;;8.52;4.05;;;;;;;;;;5035939;28;20177;-74
2023/06/15 13:13:22;;;;;;;4.80;4.00;;;;;;;;;;5069559;28;20196;-73
2023/06/15 13:15:48;;;;;;;4.85;4.07;;;39.00;1.00;;;;;;5033539;28;20182;-73